createdAt,value
2019-02-26T00:01:18.527Z,3.37
2019-02-26T00:03:45.292Z,5.87
2019-02-26T00:06:12.160Z,3.57
2019-02-26T00:08:38.645Z,3.43
2019-02-26T00:11:07.964Z,4.03
2019-02-26T00:13:36.490Z,3.40
2019-02-26T00:16:07.598Z,3.67
2019-02-26T00:18:32.386Z,2.63
2019-02-26T00:21:00.687Z,2.63
2019-02-26T00:23:28.046Z,4.70
2019-02-26T00:25:55.991Z,3.73
2019-02-26T00:28:22.498Z,5.80
2019-02-26T00:30:49.368Z,4.83
2019-02-26T00:33:16.976Z,4.23
2019-02-26T00:35:46.022Z,3.40
2019-02-26T00:38:15.032Z,3.47
2019-02-26T00:40:43.210Z,4.30
2019-02-26T00:43:10.035Z,3.40
2019-02-26T00:45:39.015Z,3.03
2019-02-26T00:48:08.294Z,4.07
2019-02-26T00:50:37.308Z,3.67
2019-02-26T00:53:04.059Z,3.83
2019-02-26T00:55:32.219Z,3.77
2019-02-26T00:58:01.059Z,3.67
2019-02-26T01:00:30.787Z,3.47
2019-02-26T01:02:57.566Z,4.80
2019-02-26T01:05:24.206Z,2.60
2019-02-26T01:07:52.567Z,2.23
2019-02-26T01:10:21.269Z,3.23
2019-02-26T01:12:49.157Z,5.20
2019-02-26T01:15:15.740Z,2.40
2019-02-26T01:17:42.313Z,3.67
2019-02-26T01:20:11.023Z,3.47
2019-02-26T01:22:40.315Z,4.13
2019-02-26T01:25:07.347Z,4.17
2019-02-26T01:27:34.010Z,3.97
2019-02-26T01:30:03.286Z,3.37
2019-02-26T01:32:30.160Z,3.20
2019-02-26T01:34:57.004Z,3.40
2019-02-26T01:37:25.366Z,2.40
2019-02-26T01:39:53.817Z,3.73
2019-02-26T01:42:24.610Z,3.67
2019-02-26T01:44:50.436Z,4.77
2019-02-26T01:47:19.277Z,3.07
2019-02-26T01:49:46.546Z,3.37
2019-02-26T01:52:15.110Z,5.97
2019-02-26T01:54:42.893Z,4.33
2019-02-26T01:57:10.508Z,3.97
2019-02-26T01:59:37.167Z,3.03
2019-02-26T02:02:03.667Z,5.87
2019-02-26T02:04:32.099Z,4.30
2019-02-26T02:07:01.385Z,5.33
2019-02-26T02:09:27.803Z,3.80
2019-02-26T02:11:57.418Z,5.07
2019-02-26T02:14:22.973Z,2.83
2019-02-26T02:16:49.446Z,3.97
2019-02-26T02:19:20.044Z,3.37
2019-02-26T02:21:47.086Z,4.83
2019-02-26T02:24:15.571Z,4.07
2019-02-26T02:26:45.321Z,3.67
2019-02-26T02:29:12.832Z,2.63
2019-02-26T02:31:49.393Z,3.20
2019-02-26T02:34:15.912Z,4.53
2019-02-26T02:36:42.412Z,6.70
2019-02-26T02:39:13.028Z,4.03
2019-02-26T02:41:39.378Z,5.27
2019-02-26T02:44:06.658Z,2.80
2019-02-26T02:46:34.234Z,4.57
2019-02-26T02:49:02.224Z,5.03
2019-02-26T02:51:31.467Z,3.63
2019-02-26T02:53:59.404Z,3.70
2019-02-26T02:56:26.298Z,4.23
2019-02-26T02:58:52.953Z,4.83
2019-02-26T03:01:22.251Z,4.30
2019-02-26T03:03:50.289Z,3.27
2019-02-26T03:06:16.301Z,4.77
2019-02-26T03:08:45.187Z,5.67
2019-02-26T03:11:11.874Z,4.33
2019-02-26T03:13:40.404Z,4.53
2019-02-26T03:16:07.095Z,5.03
2019-02-26T03:18:33.765Z,5.10
2019-02-26T03:21:02.469Z,4.67
2019-02-26T03:23:30.838Z,5.00
2019-02-26T03:25:57.467Z,4.57
2019-02-26T03:28:24.039Z,3.80
2019-02-26T03:30:50.941Z,3.13
2019-02-26T03:33:23.282Z,5.17
2019-02-26T03:35:49.897Z,3.47
2019-02-26T03:38:18.109Z,4.80
2019-02-26T03:40:44.792Z,4.03
2019-02-26T03:43:13.118Z,6.43
2019-02-26T03:45:40.186Z,5.47
2019-02-26T03:48:06.959Z,4.60
2019-02-26T03:50:33.470Z,5.47
2019-02-26T03:53:01.711Z,4.13
2019-02-26T03:55:30.872Z,3.97
2019-02-26T03:58:01.387Z,7.10
2019-02-26T04:00:26.094Z,6.80
2019-02-26T04:02:52.763Z,5.50
2019-02-26T04:05:19.433Z,5.83
2019-02-26T04:07:49.052Z,5.47
2019-02-26T04:10:14.481Z,4.83
2019-02-26T04:12:42.344Z,5.37
2019-02-26T04:15:12.918Z,4.87
2019-02-26T04:17:42.282Z,4.87
2019-02-26T04:20:09.379Z,6.27
2019-02-26T04:22:39.202Z,4.70
2019-02-26T04:25:27.053Z,6.00
2019-02-26T04:28:05.184Z,5.37
2019-02-26T04:31:16.705Z,6.73
2019-02-26T04:34:05.349Z,6.50
2019-02-26T04:37:01.577Z,4.80
2019-02-26T04:39:59.112Z,5.90
2019-02-26T04:43:27.813Z,5.00
2019-02-26T04:46:36.907Z,4.80
2019-02-26T04:49:02.822Z,5.63
2019-02-26T04:51:29.548Z,12.43
2019-02-26T04:53:59.392Z,7.47
2019-02-26T04:56:25.084Z,5.53
2019-02-26T04:58:52.074Z,5.93
2019-02-26T05:01:19.237Z,4.60
2019-02-26T05:03:45.812Z,9.20
2019-02-26T05:06:12.330Z,5.97
2019-02-26T05:08:40.332Z,5.67
2019-02-26T05:11:14.886Z,6.57
2019-02-26T05:13:37.987Z,5.27
2019-02-26T05:16:04.616Z,5.80
2019-02-26T05:18:33.796Z,5.87
2019-02-26T05:21:04.190Z,6.63
2019-02-26T05:23:31.179Z,6.93
2019-02-26T05:26:02.927Z,7.37
2019-02-26T05:28:49.681Z,5.43
2019-02-26T05:31:17.527Z,5.90
2019-02-26T05:33:46.341Z,6.20
2019-02-26T05:36:19.553Z,5.90
2019-02-26T05:38:46.273Z,10.77
2019-02-26T05:41:12.768Z,7.50
2019-02-26T05:43:39.243Z,6.87
2019-02-26T05:46:05.873Z,6.60
2019-02-26T05:48:32.469Z,5.37
2019-02-26T05:51:01.040Z,6.47
2019-02-26T05:53:27.344Z,7.77
2019-02-26T05:55:55.960Z,5.30
2019-02-26T05:58:22.343Z,4.27
2019-02-26T06:00:48.814Z,5.20
2019-02-26T06:03:18.327Z,6.60
2019-02-26T06:05:46.489Z,6.23
2019-02-26T06:08:12.462Z,6.83
2019-02-26T06:10:38.956Z,6.00
2019-02-26T06:13:07.538Z,5.93
2019-02-26T06:15:34.240Z,6.17
2019-02-26T06:18:01.047Z,6.20
2019-02-26T06:20:30.761Z,5.13
2019-02-26T06:22:57.046Z,5.30
2019-02-26T06:25:24.557Z,7.80
2019-02-26T06:27:51.214Z,7.23
2019-02-26T06:30:17.675Z,8.57
2019-02-26T06:32:44.773Z,5.97
2019-02-26T06:35:14.298Z,8.63
2019-02-26T06:37:41.642Z,8.63
2019-02-26T06:40:09.517Z,9.17
2019-02-26T06:42:37.950Z,13.77
2019-02-26T06:45:08.484Z,9.67
2019-02-26T06:47:35.634Z,7.07
2019-02-26T06:50:02.999Z,7.87
2019-02-26T06:52:35.081Z,7.17
2019-02-26T06:55:03.549Z,5.60
2019-02-26T06:57:30.213Z,9.67
2019-02-26T07:00:00.659Z,6.97
2019-02-26T07:02:28.313Z,5.47
2019-02-26T07:04:57.726Z,5.10
2019-02-26T07:07:24.258Z,8.17
2019-02-26T07:09:50.784Z,11.07
2019-02-26T07:12:19.434Z,8.37
2019-02-26T07:14:48.190Z,6.93
2019-02-26T07:17:14.685Z,6.83
2019-02-26T07:19:41.194Z,6.53
2019-02-26T07:22:10.880Z,7.33
2019-02-26T07:24:38.358Z,10.20
2019-02-26T07:27:06.596Z,9.93
2019-02-26T07:29:37.465Z,7.93
2019-02-26T07:32:01.556Z,7.73
2019-02-26T07:34:28.524Z,11.43
2019-02-26T07:36:55.065Z,6.63
2019-02-26T07:39:22.782Z,9.03
2019-02-26T07:41:51.538Z,5.93
2019-02-26T07:44:18.859Z,6.23
2019-02-26T07:46:46.460Z,9.17
2019-02-26T07:49:13.234Z,5.90
2019-02-26T07:51:40.543Z,4.93
2019-02-26T07:54:08.344Z,9.27
2019-02-26T07:56:34.935Z,5.33
2019-02-26T07:59:04.464Z,6.07
2019-02-26T08:01:30.119Z,7.20
2019-02-26T08:03:56.820Z,7.27
2019-02-26T08:06:23.407Z,7.10
2019-02-26T08:08:49.962Z,4.93
2019-02-26T08:11:16.829Z,5.07
2019-02-26T08:13:43.537Z,8.17
2019-02-26T08:16:10.349Z,7.77
2019-02-26T08:18:37.446Z,5.70
2019-02-26T08:21:05.087Z,5.40
2019-02-26T08:23:32.994Z,6.17
2019-02-26T08:26:02.158Z,4.43
2019-02-26T08:28:28.357Z,6.63
2019-02-26T08:30:57.129Z,5.40
2019-02-26T08:33:23.356Z,4.40
2019-02-26T08:35:49.925Z,4.07
2019-02-26T08:38:16.535Z,5.37
2019-02-26T08:40:43.294Z,4.37
2019-02-26T08:43:09.962Z,9.27
2019-02-26T08:45:36.828Z,7.00
2019-02-26T08:48:03.517Z,4.90
2019-02-26T08:50:32.980Z,5.13
2019-02-26T08:52:59.198Z,4.37
2019-02-26T08:55:26.281Z,5.03
2019-02-26T08:57:53.962Z,4.47
2019-02-26T09:00:23.477Z,5.40
2019-02-26T09:02:53.735Z,7.30
2019-02-26T09:05:20.699Z,4.70
2019-02-26T09:07:50.379Z,6.17
2019-02-26T09:10:20.529Z,6.50
2019-02-26T09:12:56.380Z,9.23
2019-02-26T09:15:33.555Z,9.10
2019-02-26T09:18:11.752Z,6.43
2019-02-26T09:20:39.045Z,5.70
2019-02-26T09:23:05.959Z,5.03
2019-02-26T09:25:33.971Z,5.50
2019-02-26T09:28:00.788Z,7.90
2019-02-26T09:30:30.912Z,5.57
2019-02-26T09:32:59.123Z,4.53
2019-02-26T09:35:28.803Z,3.90
2019-02-26T09:37:57.669Z,4.20
2019-02-26T09:40:26.403Z,4.60
2019-02-26T09:42:54.403Z,4.90
2019-02-26T09:45:22.520Z,4.37
2019-02-26T09:47:49.709Z,4.90
2019-02-26T09:50:20.729Z,6.40
2019-02-26T09:52:47.908Z,5.23
2019-02-26T09:55:16.028Z,5.00
2019-02-26T09:57:42.823Z,4.87
2019-02-26T10:00:14.654Z,7.23
2019-02-26T10:02:42.574Z,4.00
2019-02-26T10:05:11.667Z,6.97
2019-02-26T10:07:38.804Z,6.43
2019-02-26T10:10:10.891Z,6.43
2019-02-26T10:12:37.451Z,4.77
2019-02-26T10:15:05.519Z,5.77
2019-02-26T10:17:35.076Z,5.63
2019-02-26T10:20:01.751Z,5.57
2019-02-26T10:22:33.201Z,9.00
2019-02-26T10:24:57.958Z,5.43
2019-02-26T10:27:24.590Z,5.20
2019-02-26T10:29:51.559Z,5.17
2019-02-26T10:32:19.153Z,7.30
2019-02-26T10:34:54.842Z,5.10
2019-02-26T10:37:21.310Z,6.03
2019-02-26T10:39:49.735Z,9.07
2019-02-26T10:42:18.134Z,5.57
2019-02-26T10:44:45.121Z,6.40
2019-02-26T10:47:11.618Z,5.80
2019-02-26T10:49:38.138Z,5.87
2019-02-26T10:52:06.405Z,5.13
2019-02-26T10:54:37.494Z,5.57
2019-02-26T10:57:04.590Z,9.43
2019-02-26T10:59:31.815Z,6.17
2019-02-26T11:02:00.720Z,6.43
2019-02-26T11:04:34.421Z,5.87
2019-02-26T11:06:55.403Z,6.37
2019-02-26T11:09:26.254Z,4.33
2019-02-26T11:11:51.439Z,4.87
2019-02-26T11:14:19.460Z,5.00
2019-02-26T11:16:46.427Z,5.60
2019-02-26T11:19:13.267Z,5.50
2019-02-26T11:21:39.799Z,3.93
2019-02-26T11:24:08.438Z,4.33
2019-02-26T11:26:35.936Z,4.93
2019-02-26T11:29:03.456Z,5.20
2019-02-26T11:31:30.002Z,3.50
2019-02-26T11:34:00.247Z,3.43
2019-02-26T11:36:25.215Z,4.03
2019-02-26T11:38:51.735Z,5.27
2019-02-26T11:41:18.305Z,5.60
2019-02-26T11:43:44.942Z,3.43
2019-02-26T11:46:11.469Z,4.03
2019-02-26T11:48:38.664Z,4.27
2019-02-26T11:51:05.284Z,3.57
2019-02-26T11:53:32.345Z,4.77
2019-02-26T11:56:00.057Z,4.93
2019-02-26T11:58:28.029Z,5.97
2019-02-26T12:00:58.038Z,6.80
2019-02-26T12:03:25.411Z,3.43
2019-02-26T12:06:00.560Z,7.40
2019-02-26T12:08:25.990Z,5.87
2019-02-26T12:10:57.669Z,5.13
2019-02-26T12:13:22.350Z,6.40
2019-02-26T12:15:49.664Z,4.73
2019-02-26T12:18:17.914Z,3.37
2019-02-26T12:20:48.076Z,4.43
2019-02-26T12:23:16.172Z,5.07
2019-02-26T12:25:42.303Z,5.10
2019-02-26T12:28:10.781Z,7.70
2019-02-26T12:30:38.266Z,6.00
2019-02-26T12:33:07.678Z,6.83
2019-02-26T12:35:35.732Z,7.70
2019-02-26T12:38:17.539Z,8.90
2019-02-26T12:40:32.889Z,8.73
2019-02-26T12:43:01.858Z,8.70
2019-02-26T12:45:29.313Z,8.00
2019-02-26T12:47:56.666Z,5.93
2019-02-26T12:50:26.697Z,11.63
2019-02-26T12:52:53.900Z,8.70
2019-02-26T12:55:22.330Z,5.07
2019-02-26T12:57:52.679Z,6.37
2019-02-26T13:00:20.043Z,5.00
2019-02-26T13:02:49.402Z,4.30
2019-02-26T13:05:18.897Z,3.53
2019-02-26T13:07:44.772Z,3.63
2019-02-26T13:10:13.996Z,3.03
2019-02-26T13:12:40.578Z,3.40
2019-02-26T13:15:10.076Z,3.27
2019-02-26T13:17:36.691Z,5.37
2019-02-26T13:20:10.825Z,4.37
2019-02-26T13:22:33.841Z,2.90
2019-02-26T13:25:03.702Z,3.20
2019-02-26T13:27:29.018Z,2.77
2019-02-26T13:29:57.165Z,4.10
2019-02-26T13:32:26.348Z,3.27
2019-02-26T13:34:56.515Z,4.50
2019-02-26T13:37:21.010Z,5.27
2019-02-26T13:39:47.636Z,5.57
2019-02-26T13:42:19.167Z,3.43
2019-02-26T13:44:42.794Z,3.37
2019-02-26T13:47:10.066Z,2.60
2019-02-26T13:49:36.609Z,3.07
2019-02-26T13:52:06.071Z,3.10
2019-02-26T13:54:33.824Z,2.33
2019-02-26T13:57:00.830Z,3.90
2019-02-26T13:59:27.710Z,2.87
2019-02-26T14:01:54.273Z,6.53
2019-02-26T14:04:21.418Z,4.17
2019-02-26T14:06:48.240Z,4.43
2019-02-26T14:09:20.766Z,4.60
2019-02-26T14:11:47.928Z,3.83
2019-02-26T14:14:14.774Z,4.03
2019-02-26T14:16:45.313Z,3.43
2019-02-26T14:19:31.246Z,4.32
2019-02-26T14:21:57.887Z,4.80
2019-02-26T14:24:24.618Z,3.57
2019-02-26T14:26:52.612Z,4.23
2019-02-26T14:29:20.060Z,6.83
2019-02-26T14:31:52.024Z,3.90
2019-02-26T14:34:25.114Z,7.10
2019-02-26T14:37:00.365Z,4.33
2019-02-26T14:39:33.563Z,5.33
2019-02-26T14:42:00.916Z,3.10
2019-02-26T14:44:29.689Z,3.97
2019-02-26T14:47:02.723Z,6.50
2019-02-26T14:49:31.888Z,3.50
2019-02-26T14:52:06.064Z,3.53
2019-02-26T14:54:40.717Z,4.53
2019-02-26T14:57:07.917Z,4.30
2019-02-26T14:59:39.697Z,4.40
2019-02-26T15:02:15.094Z,5.23
2019-02-26T15:04:52.384Z,4.90
2019-02-26T15:07:35.311Z,4.23
2019-02-26T15:10:04.880Z,3.63
2019-02-26T15:12:37.646Z,5.60
2019-02-26T15:15:04.531Z,3.17
2019-02-26T15:17:31.348Z,2.33
2019-02-26T15:19:58.116Z,5.23
2019-02-26T15:22:26.564Z,2.97
2019-02-26T15:24:54.249Z,5.77
2019-02-26T15:27:20.925Z,4.97
2019-02-26T15:29:56.267Z,4.93
2019-02-26T15:32:22.866Z,4.43
2019-02-26T15:34:51.071Z,4.20
2019-02-26T15:37:18.012Z,6.47
2019-02-26T15:39:45.207Z,7.23
2019-02-26T15:42:14.718Z,6.00
2019-02-26T15:44:41.286Z,10.90
2019-02-26T15:47:12.047Z,4.47
2019-02-26T15:49:42.796Z,4.33
2019-02-26T15:52:09.884Z,4.87
2019-02-26T15:54:36.424Z,6.20
2019-02-26T15:57:03.003Z,10.60
2019-02-26T15:59:29.619Z,10.30
2019-02-26T16:01:56.718Z,9.00
2019-02-26T16:04:23.313Z,6.07
2019-02-26T16:06:50.015Z,6.73
2019-02-26T16:09:16.641Z,7.47
2019-02-26T16:11:43.503Z,7.40
2019-02-26T16:14:10.040Z,7.83
2019-02-26T16:16:36.637Z,6.97
2019-02-26T16:19:09.603Z,6.60
2019-02-26T16:21:36.296Z,10.60
2019-02-26T16:24:03.263Z,7.40
2019-02-26T16:26:30.094Z,13.33
2019-02-26T16:29:00.825Z,8.80
2019-02-26T16:31:29.710Z,8.53
2019-02-26T16:33:53.919Z,7.03
2019-02-26T16:36:20.712Z,12.93
2019-02-26T16:38:50.575Z,7.40
2019-02-26T16:41:15.803Z,9.80
2019-02-26T16:43:42.549Z,10.27
2019-02-26T16:46:09.435Z,11.00
2019-02-26T16:48:36.158Z,12.23
2019-02-26T16:51:02.757Z,13.27
2019-02-26T16:53:31.726Z,11.30
2019-02-26T16:55:58.163Z,10.30
2019-02-26T16:58:35.407Z,12.50
2019-02-26T17:01:05.272Z,6.40
2019-02-26T17:03:34.071Z,10.37
2019-02-26T17:06:00.192Z,6.87
2019-02-26T17:08:26.708Z,6.00
2019-02-26T17:10:53.217Z,6.07
2019-02-26T17:13:19.786Z,6.80
2019-02-26T17:15:50.449Z,11.07
2019-02-26T17:18:17.056Z,6.77
2019-02-26T17:20:43.829Z,4.87
2019-02-26T17:23:13.594Z,5.40
2019-02-26T17:25:40.038Z,9.37
2019-02-26T17:28:06.566Z,8.23
2019-02-26T17:30:33.560Z,8.03
2019-02-26T17:33:00.072Z,5.83
2019-02-26T17:35:29.591Z,4.70
2019-02-26T17:37:56.554Z,5.97
2019-02-26T17:40:23.136Z,4.80
2019-02-26T17:42:51.345Z,4.47
2019-02-26T17:45:18.643Z,6.03
2019-02-26T17:47:45.487Z,6.40
2019-02-26T17:50:21.475Z,6.83
2019-02-26T17:52:51.533Z,4.73
2019-02-26T17:55:18.169Z,4.63
2019-02-26T17:57:44.858Z,5.70
2019-02-26T18:00:13.243Z,5.63
2019-02-26T18:02:39.775Z,6.37
2019-02-26T18:05:06.622Z,4.33
2019-02-26T18:07:38.386Z,5.57
2019-02-26T18:10:06.516Z,4.33
2019-02-26T18:12:33.100Z,4.23
2019-02-26T18:14:59.587Z,4.87
2019-02-26T18:17:26.138Z,5.20
2019-02-26T18:19:52.734Z,5.23
2019-02-26T18:22:21.600Z,4.03
2019-02-26T18:24:48.068Z,4.40
2019-02-26T18:27:14.638Z,5.83
2019-02-26T18:29:41.138Z,4.60
2019-02-26T18:32:10.857Z,4.80
2019-02-26T18:34:36.431Z,5.47
2019-02-26T18:37:02.985Z,5.77
2019-02-26T18:39:29.466Z,3.33
2019-02-26T18:41:55.992Z,4.60
2019-02-26T18:44:22.448Z,7.80
2019-02-26T18:46:48.984Z,8.13
2019-02-26T18:49:15.797Z,5.60
2019-02-26T18:51:42.272Z,7.30
2019-02-26T18:54:09.097Z,13.03
2019-02-26T18:56:38.672Z,8.33
2019-02-26T18:59:04.547Z,7.17
2019-02-26T19:01:31.477Z,7.60
2019-02-26T19:03:58.269Z,7.87
2019-02-26T19:06:26.962Z,6.57
2019-02-26T19:08:53.292Z,5.10
2019-02-26T19:11:26.112Z,7.10
2019-02-26T19:13:52.876Z,7.43
2019-02-26T19:16:20.702Z,5.90
2019-02-26T19:18:48.802Z,6.87
2019-02-26T19:21:21.711Z,7.33
2019-02-26T19:23:48.435Z,8.10
2019-02-26T19:26:15.481Z,6.53
2019-02-26T19:28:43.459Z,6.53
2019-02-26T19:31:10.337Z,11.60
2019-02-26T19:33:38.159Z,6.60
2019-02-26T19:36:10.657Z,6.60
2019-02-26T19:38:37.849Z,8.53
2019-02-26T19:41:12.428Z,5.80
2019-02-26T19:43:37.422Z,6.83
2019-02-26T19:46:04.253Z,7.53
2019-02-26T19:48:33.905Z,7.07
2019-02-26T19:50:59.372Z,8.67
2019-02-26T19:53:26.336Z,6.67
2019-02-26T19:55:57.797Z,10.83
2019-02-26T19:58:25.074Z,7.37
2019-02-26T20:00:52.988Z,8.70
2019-02-26T20:03:20.571Z,7.43
2019-02-26T20:05:47.679Z,10.90
2019-02-26T20:08:24.364Z,7.20
2019-02-26T20:10:57.732Z,7.53
2019-02-26T20:13:26.454Z,11.33
2019-02-26T20:15:55.420Z,7.23
2019-02-26T20:18:26.113Z,7.40
2019-02-26T20:20:54.496Z,8.77
2019-02-26T20:23:22.111Z,10.77
2019-02-26T20:25:51.054Z,11.07
2019-02-26T20:28:24.733Z,8.47
2019-02-26T20:30:52.825Z,8.10
2019-02-26T20:33:21.966Z,7.63
2019-02-26T20:35:49.780Z,9.70
2019-02-26T20:38:17.910Z,12.23
2019-02-26T20:40:49.016Z,8.93
2019-02-26T20:43:19.546Z,8.23
2019-02-26T20:45:48.680Z,7.20
2019-02-26T20:48:17.334Z,7.50
2019-02-26T20:50:44.935Z,6.37
2019-02-26T20:53:11.686Z,7.87
2019-02-26T20:55:39.114Z,5.93
2019-02-26T20:58:06.567Z,10.27
2019-02-26T21:00:33.248Z,8.27
2019-02-26T21:02:59.993Z,15.20
2019-02-26T21:05:28.878Z,13.73
2019-02-26T21:07:58.767Z,7.43
2019-02-26T21:10:24.773Z,10.37
2019-02-26T21:12:51.619Z,7.33
2019-02-26T21:15:19.750Z,7.97
2019-02-26T21:17:46.546Z,7.83
2019-02-26T21:20:13.937Z,9.43
2019-02-26T21:22:40.782Z,8.50
2019-02-26T21:25:08.475Z,6.70
2019-02-26T21:27:36.242Z,7.20
2019-02-26T21:30:12.590Z,8.87
2019-02-26T21:32:39.430Z,7.33
2019-02-26T21:35:06.863Z,7.97
2019-02-26T21:37:34.030Z,10.40
2019-02-26T21:40:00.937Z,8.07
2019-02-26T21:42:28.989Z,9.03
2019-02-26T21:44:55.919Z,9.07
2019-02-26T21:47:22.452Z,7.30
2019-02-26T21:49:49.338Z,10.97
2019-02-26T21:52:16.163Z,10.07
2019-02-26T21:54:42.910Z,6.83
2019-02-26T21:57:09.666Z,8.90
2019-02-26T21:59:36.209Z,7.20
2019-02-26T22:02:02.890Z,10.27
2019-02-26T22:04:31.757Z,6.77
2019-02-26T22:06:57.991Z,11.27
2019-02-26T22:09:24.493Z,10.10
2019-02-26T22:11:51.340Z,7.97
2019-02-26T22:14:19.939Z,9.60
2019-02-26T22:16:48.897Z,7.60
2019-02-26T22:19:15.034Z,8.63
2019-02-26T22:21:51.773Z,10.70
2019-02-26T22:24:17.565Z,7.23
2019-02-26T22:26:44.136Z,8.40
2019-02-26T22:29:12.947Z,7.80
2019-02-26T22:31:39.165Z,8.40
2019-02-26T22:34:05.670Z,10.47
2019-02-26T22:36:33.327Z,7.87
2019-02-26T22:39:06.138Z,7.40
2019-02-26T22:41:35.134Z,7.13
2019-02-26T22:44:01.690Z,7.87
2019-02-26T22:46:28.456Z,7.50
2019-02-26T22:48:55.050Z,9.40
2019-02-26T22:51:21.553Z,7.40
2019-02-26T22:53:48.067Z,7.60
2019-02-26T22:56:15.381Z,7.13
2019-02-26T22:58:42.740Z,7.80
2019-02-26T23:01:19.599Z,7.67
2019-02-26T23:03:46.650Z,7.37
2019-02-26T23:06:13.323Z,7.87
2019-02-26T23:08:39.866Z,10.87
2019-02-26T23:11:07.026Z,10.23
2019-02-26T23:13:34.628Z,11.50
2019-02-26T23:16:03.546Z,8.40
2019-02-26T23:18:31.602Z,7.80
2019-02-26T23:20:58.698Z,9.03
2019-02-26T23:23:25.242Z,7.73
2019-02-26T23:25:52.006Z,10.70
2019-02-26T23:28:21.715Z,6.53
2019-02-26T23:30:47.454Z,11.03
2019-02-26T23:33:15.266Z,8.10
2019-02-26T23:35:42.633Z,9.43
2019-02-26T23:38:09.620Z,8.67
2019-02-26T23:40:36.087Z,7.93
2019-02-26T23:43:03.213Z,8.57
2019-02-26T23:45:29.738Z,9.50
2019-02-26T23:47:56.303Z,9.77
2019-02-26T23:50:22.784Z,9.80
2019-02-26T23:52:49.403Z,7.20
2019-02-26T23:55:16.029Z,13.93
2019-02-26T23:57:42.790Z,8.90
